sensor_id;sensor_type;location;lat;lon;timestamp;pressure;altitude;pressure_sealevel;temperature;humidity
62051;BME280;48008;51.204;6.766;2022-12-10T00:02:13;100321.16;;;0.50;90.66
62051;BME280;48008;51.204;6.766;2022-12-10T00:04:39;100318.50;;;0.37;91.86
62051;BME280;48008;51.204;6.766;2022-12-10T00:07:07;100321.75;;;0.14;93.12
62051;BME280;48008;51.204;6.766;2022-12-10T00:09:34;100330.22;;;0.17;93.42
62051;BME280;48008;51.204;6.766;2022-12-10T00:12:01;100325.69;;;0.34;92.87
62051;BME280;48008;51.204;6.766;2022-12-10T00:14:28;100321.75;;;0.41;91.80
62051;BME280;48008;51.204;6.766;2022-12-10T00:16:55;100331.06;;;0.45;91.03
62051;BME280;48008;51.204;6.766;2022-12-10T00:19:21;100326.53;;;0.34;91.19
62051;BME280;48008;51.204;6.766;2022-12-10T00:21:48;100325.69;;;0.34;91.20
62051;BME280;48008;51.204;6.766;2022-12-10T00:24:15;100325.88;;;0.31;91.48
62051;BME280;48008;51.204;6.766;2022-12-10T00:26:42;100327.84;;;0.27;91.70
62051;BME280;48008;51.204;6.766;2022-12-10T00:29:11;100324.59;;;0.24;92.26
62051;BME280;48008;51.204;6.766;2022-12-10T00:31:38;100332.44;;;0.24;92.08
62051;BME280;48008;51.204;6.766;2022-12-10T00:34:08;100324.31;;;0.28;91.92
62051;BME280;48008;51.204;6.766;2022-12-10T00:36:39;100332.44;;;0.24;92.44
62051;BME280;48008;51.204;6.766;2022-12-10T00:39:06;100326.88;;;0.15;92.73
62051;BME280;48008;51.204;6.766;2022-12-10T00:41:33;100330.22;;;0.17;92.03
62051;BME280;48008;51.204;6.766;2022-12-10T00:44:00;100324.91;;;0.19;92.38
62051;BME280;48008;51.204;6.766;2022-12-10T00:46:27;100326.97;;;0.14;92.34
62051;BME280;48008;51.204;6.766;2022-12-10T00:48:54;100319.97;;;0.14;92.92
62051;BME280;48008;51.204;6.766;2022-12-10T00:51:23;100327.16;;;0.11;92.72
62051;BME280;48008;51.204;6.766;2022-12-10T00:53:52;100328.94;;;0.10;93.26
62051;BME280;48008;51.204;6.766;2022-12-10T00:56:21;100323.91;;;0.07;93.72
62051;BME280;48008;51.204;6.766;2022-12-10T00:58:49;100336.94;;;0.07;93.97
62051;BME280;48008;51.204;6.766;2022-12-10T01:01:23;100337.97;;;0.05;93.27
62051;BME280;48008;51.204;6.766;2022-12-10T01:03:54;100342.47;;;0.03;93.41
62051;BME280;48008;51.204;6.766;2022-12-10T01:06:27;100340.59;;;0.05;92.63
62051;BME280;48008;51.204;6.766;2022-12-10T01:08:59;100332.84;;;0.03;92.44
62051;BME280;48008;51.204;6.766;2022-12-10T01:11:31;100338.28;;;0.00;92.39
62051;BME280;48008;51.204;6.766;2022-12-10T01:13:58;100339.75;;;0.04;92.19
62051;BME280;48008;51.204;6.766;2022-12-10T01:16:26;100334.72;;;0.01;92.36
62051;BME280;48008;51.204;6.766;2022-12-10T01:18:54;100344.25;;;0.02;91.86
62051;BME280;48008;51.204;6.766;2022-12-10T01:21:22;100345.63;;;0.08;91.85
62051;BME280;48008;51.204;6.766;2022-12-10T01:23:50;100339.75;;;0.04;91.84
62051;BME280;48008;51.204;6.766;2022-12-10T01:26:21;100347.59;;;0.04;91.67
62051;BME280;48008;51.204;6.766;2022-12-10T01:28:49;100345.06;;;0.03;91.34
62051;BME280;48008;51.204;6.766;2022-12-10T01:31:22;100350.28;;;0.03;91.79
62051;BME280;48008;51.204;6.766;2022-12-10T01:33:49;100359.44;;;-0.05;91.55
62051;BME280;48008;51.204;6.766;2022-12-10T01:36:18;100356.72;;;-0.03;92.31
62051;BME280;48008;51.204;6.766;2022-12-10T01:38:46;100354.78;;;-0.14;92.23
62051;BME280;48008;51.204;6.766;2022-12-10T01:41:19;100356.56;;;-0.14;92.30
62051;BME280;48008;51.204;6.766;2022-12-10T01:43:52;100358.22;;;-0.13;92.08
62051;BME280;48008;51.204;6.766;2022-12-10T01:46:20;100361.00;;;-0.16;91.89
62051;BME280;48008;51.204;6.766;2022-12-10T01:48:47;100366.69;;;-0.24;91.64
62051;BME280;48008;51.204;6.766;2022-12-10T01:51:14;100369.69;;;-0.16;91.49
62051;BME280;48008;51.204;6.766;2022-12-10T01:53:43;100367.91;;;-0.15;91.83
62051;BME280;48008;51.204;6.766;2022-12-10T01:56:11;100369.88;;;-0.19;91.57
62051;BME280;48008;51.204;6.766;2022-12-10T01:58:38;100369.03;;;-0.20;91.38
62051;BME280;48008;51.204;6.766;2022-12-10T02:01:11;100368.47;;;-0.25;91.79
62051;BME280;48008;51.204;6.766;2022-12-10T02:04:03;100380.47;;;-0.22;91.72
62051;BME280;48008;51.204;6.766;2022-12-10T02:06:54;100379.38;;;-0.32;91.84
62051;BME280;48008;51.204;6.766;2022-12-10T02:12:23;100384.03;;;-0.37;91.94
62051;BME280;48008;51.204;6.766;2022-12-10T02:17:29;100382.41;;;-0.40;92.46
62051;BME280;48008;51.204;6.766;2022-12-10T02:22:45;100378.16;;;-0.41;93.42
62051;BME280;48008;51.204;6.766;2022-12-10T02:25:14;100378.72;;;-0.36;93.81
62051;BME280;48008;51.204;6.766;2022-12-10T02:28:04;100373.13;;;-0.30;93.97
62051;BME280;48008;51.204;6.766;2022-12-10T02:30:33;100377.13;;;-0.24;94.85
62051;BME280;48008;51.204;6.766;2022-12-10T02:33:02;100371.00;;;-0.09;94.83
62051;BME280;48008;51.204;6.766;2022-12-10T02:35:33;100373.75;;;0.03;94.88
62051;BME280;48008;51.204;6.766;2022-12-10T02:38:04;100371.50;;;0.11;95.57
62051;BME280;48008;51.204;6.766;2022-12-10T02:40:36;100370.31;;;0.16;96.09
62051;BME280;48008;51.204;6.766;2022-12-10T02:43:07;100373.25;;;0.25;95.58
62051;BME280;48008;51.204;6.766;2022-12-10T02:45:36;100372.97;;;0.29;96.29
62051;BME280;48008;51.204;6.766;2022-12-10T02:48:05;100365.66;;;0.34;95.76
62051;BME280;48008;51.204;6.766;2022-12-10T02:50:37;100378.72;;;0.34;96.16
62051;BME280;48008;51.204;6.766;2022-12-10T02:53:04;100377.38;;;0.42;96.48
62051;BME280;48008;51.204;6.766;2022-12-10T02:58:42;100382.44;;;0.45;95.64
62051;BME280;48008;51.204;6.766;2022-12-10T03:02:03;100385.03;;;0.45;95.74
62051;BME280;48008;51.204;6.766;2022-12-10T03:07:35;100396.78;;;0.37;96.05
62051;BME280;48008;51.204;6.766;2022-12-10T03:10:20;100396.34;;;0.31;96.42
62051;BME280;48008;51.204;6.766;2022-12-10T03:12:56;100391.25;;;0.29;96.55
62051;BME280;48008;51.204;6.766;2022-12-10T03:15:26;100390.94;;;0.34;97.24
62051;BME280;48008;51.204;6.766;2022-12-10T03:17:55;100398.84;;;0.32;96.87
62051;BME280;48008;51.204;6.766;2022-12-10T03:20:23;100395.66;;;0.42;95.83
62051;BME280;48008;51.204;6.766;2022-12-10T03:22:52;100396.13;;;0.48;96.13
62051;BME280;48008;51.204;6.766;2022-12-10T03:25:24;100400.59;;;0.46;95.55
62051;BME280;48008;51.204;6.766;2022-12-10T03:27:53;100403.44;;;0.56;96.03
62051;BME280;48008;51.204;6.766;2022-12-10T03:30:21;100400.94;;;0.54;95.31
62051;BME280;48008;51.204;6.766;2022-12-10T03:32:48;100403.09;;;0.62;95.01
62051;BME280;48008;51.204;6.766;2022-12-10T03:35:17;100404.63;;;0.65;95.22
62051;BME280;48008;51.204;6.766;2022-12-10T03:37:45;100406.34;;;0.66;95.52
62051;BME280;48008;51.204;6.766;2022-12-10T03:40:12;100405.47;;;0.65;95.16
62051;BME280;48008;51.204;6.766;2022-12-10T03:42:39;100409.69;;;0.68;94.56
62051;BME280;48008;51.204;6.766;2022-12-10T03:45:06;100414.91;;;0.68;94.93
62051;BME280;48008;51.204;6.766;2022-12-10T03:47:33;100407.16;;;0.66;94.60
62051;BME280;48008;51.204;6.766;2022-12-10T03:50:00;100405.94;;;0.72;95.28
62051;BME280;48008;51.204;6.766;2022-12-10T03:52:27;100402.56;;;0.70;94.45
62051;BME280;48008;51.204;6.766;2022-12-10T03:54:54;100402.38;;;0.73;94.76
62051;BME280;48008;51.204;6.766;2022-12-10T03:57:20;100401.88;;;0.81;94.50
62051;BME280;48008;51.204;6.766;2022-12-10T03:59:47;100413.91;;;0.83;94.13
62051;BME280;48008;51.204;6.766;2022-12-10T04:02:13;100404.75;;;0.63;94.88
62051;BME280;48008;51.204;6.766;2022-12-10T04:04:41;100399.34;;;0.25;96.23
62051;BME280;48008;51.204;6.766;2022-12-10T04:07:08;100398.03;;;0.32;96.59
62051;BME280;48008;51.204;6.766;2022-12-10T04:09:35;100403.94;;;-0.08;98.12
62051;BME280;48008;51.204;6.766;2022-12-10T04:12:02;100404.97;;;-0.10;98.54
62051;BME280;48008;51.204;6.766;2022-12-10T04:14:29;100406.09;;;-0.14;99.40
62051;BME280;48008;51.204;6.766;2022-12-10T04:17:16;100406.19;;;0.13;97.75
62051;BME280;48008;51.204;6.766;2022-12-10T04:19:42;100412.56;;;0.22;97.87
62051;BME280;48008;51.204;6.766;2022-12-10T04:22:10;100403.06;;;0.35;96.66
62051;BME280;48008;51.204;6.766;2022-12-10T04:24:56;100407.63;;;0.31;96.07
62051;BME280;48008;51.204;6.766;2022-12-10T04:27:43;100407.06;;;0.41;95.86
62051;BME280;48008;51.204;6.766;2022-12-10T04:30:11;100407.28;;;0.50;95.33
62051;BME280;48008;51.204;6.766;2022-12-10T04:32:38;100418.38;;;0.54;94.63
62051;BME280;48008;51.204;6.766;2022-12-10T04:35:06;100407.44;;;0.62;94.32
62051;BME280;48008;51.204;6.766;2022-12-10T04:37:32;100409.88;;;0.65;94.31
62051;BME280;48008;51.204;6.766;2022-12-10T04:39:59;100409.41;;;0.58;94.03
62051;BME280;48008;51.204;6.766;2022-12-10T04:42:26;100404.41;;;0.55;93.08
62051;BME280;48008;51.204;6.766;2022-12-10T04:44:52;100410.22;;;0.46;92.85
62051;BME280;48008;51.204;6.766;2022-12-10T04:47:19;100409.00;;;0.37;94.12
62051;BME280;48008;51.204;6.766;2022-12-10T04:49:46;100412.53;;;0.36;94.56
62051;BME280;48008;51.204;6.766;2022-12-10T04:52:14;100416.94;;;0.35;94.30
62051;BME280;48008;51.204;6.766;2022-12-10T04:54:42;100418.91;;;0.32;94.40
62051;BME280;48008;51.204;6.766;2022-12-10T04:57:10;100417.13;;;0.32;95.00
62051;BME280;48008;51.204;6.766;2022-12-10T04:59:37;100414.59;;;0.31;94.68
62051;BME280;48008;51.204;6.766;2022-12-10T05:02:05;100420.03;;;0.28;95.17
62051;BME280;48008;51.204;6.766;2022-12-10T05:04:32;100421.63;;;0.16;94.33
62051;BME280;48008;51.204;6.766;2022-12-10T05:06:59;100423.13;;;0.20;93.91
62051;BME280;48008;51.204;6.766;2022-12-10T05:09:26;100424.03;;;0.19;94.21
62051;BME280;48008;51.204;6.766;2022-12-10T05:11:53;100426.16;;;0.27;93.59
62051;BME280;48008;51.204;6.766;2022-12-10T05:14:20;100412.38;;;0.25;93.56
62051;BME280;48008;51.204;6.766;2022-12-10T05:16:49;100418.06;;;0.31;92.84
62051;BME280;48008;51.204;6.766;2022-12-10T05:19:17;100414.06;;;0.26;93.29
62051;BME280;48008;51.204;6.766;2022-12-10T05:21:47;100411.94;;;0.04;93.12
62051;BME280;48008;51.204;6.766;2022-12-10T05:24:34;100413.34;;;0.09;93.56
62051;BME280;48008;51.204;6.766;2022-12-10T05:27:01;100412.50;;;0.09;93.25
62051;BME280;48008;51.204;6.766;2022-12-10T05:29:27;100410.63;;;0.11;92.95
62051;BME280;48008;51.204;6.766;2022-12-10T05:31:54;100411.47;;;0.11;93.06
62051;BME280;48008;51.204;6.766;2022-12-10T05:34:21;100418.56;;;0.09;93.18
62051;BME280;48008;51.204;6.766;2022-12-10T05:36:48;100416.88;;;0.08;93.52
62051;BME280;48008;51.204;6.766;2022-12-10T05:39:15;100420.13;;;0.12;93.49
62051;BME280;48008;51.204;6.766;2022-12-10T05:41:42;100421.25;;;0.22;93.23
62051;BME280;48008;51.204;6.766;2022-12-10T05:44:10;100419.28;;;0.26;93.06
62051;BME280;48008;51.204;6.766;2022-12-10T05:46:37;100420.22;;;0.25;92.48
62051;BME280;48008;51.204;6.766;2022-12-10T05:49:05;100427.69;;;0.16;92.13
62051;BME280;48008;51.204;6.766;2022-12-10T05:51:34;100429.28;;;0.05;92.36
62051;BME280;48008;51.204;6.766;2022-12-10T05:54:02;100427.13;;;-0.32;94.65
62051;BME280;48008;51.204;6.766;2022-12-10T05:56:30;100426.75;;;-0.26;94.46
62051;BME280;48008;51.204;6.766;2022-12-10T05:59:01;100437.28;;;-0.13;93.94
62051;BME280;48008;51.204;6.766;2022-12-10T06:01:31;100434.22;;;-0.20;94.91
62051;BME280;48008;51.204;6.766;2022-12-10T06:03:59;100433.09;;;-0.15;94.81
62051;BME280;48008;51.204;6.766;2022-12-10T06:06:29;100439.22;;;-0.16;94.61
62051;BME280;48008;51.204;6.766;2022-12-10T06:08:56;100433.94;;;-0.01;94.80
62051;BME280;48008;51.204;6.766;2022-12-10T06:11:26;100440.63;;;0.04;93.90
62051;BME280;48008;51.204;6.766;2022-12-10T06:13:54;100434.78;;;0.00;93.84
62051;BME280;48008;51.204;6.766;2022-12-10T06:16:22;100438.97;;;-0.12;94.12
62051;BME280;48008;51.204;6.766;2022-12-10T06:18:49;100438.41;;;-0.03;93.99
62051;BME280;48008;51.204;6.766;2022-12-10T06:21:17;100446.41;;;-0.34;94.11
62051;BME280;48008;51.204;6.766;2022-12-10T06:23:45;100443.41;;;-0.28;94.05
62051;BME280;48008;51.204;6.766;2022-12-10T06:26:14;100447.22;;;-0.34;94.83
62051;BME280;48008;51.204;6.766;2022-12-10T06:28:44;100448.69;;;-0.44;94.58
62051;BME280;48008;51.204;6.766;2022-12-10T06:31:11;100448.22;;;-0.65;95.48
62051;BME280;48008;51.204;6.766;2022-12-10T06:33:40;100454.28;;;-0.50;94.64
62051;BME280;48008;51.204;6.766;2022-12-10T06:36:08;100450.91;;;-0.67;94.37
62051;BME280;48008;51.204;6.766;2022-12-10T06:38:36;100449.78;;;-0.63;94.63
62051;BME280;48008;51.204;6.766;2022-12-10T06:41:05;100458.19;;;-0.57;94.36
62051;BME280;48008;51.204;6.766;2022-12-10T06:43:32;100465.25;;;-0.60;94.37
62051;BME280;48008;51.204;6.766;2022-12-10T06:46:05;100469.44;;;-0.57;94.90
62051;BME280;48008;51.204;6.766;2022-12-10T06:48:32;100465.63;;;-0.51;94.80
62051;BME280;48008;51.204;6.766;2022-12-10T06:50:59;100472.41;;;-0.63;94.47
62051;BME280;48008;51.204;6.766;2022-12-10T06:53:26;100476.91;;;-0.97;96.30
62051;BME280;48008;51.204;6.766;2022-12-10T06:55:53;100474.59;;;-0.71;95.99
62051;BME280;48008;51.204;6.766;2022-12-10T06:58:19;100480.44;;;-0.52;95.59
62051;BME280;48008;51.204;6.766;2022-12-10T07:00:46;100481.56;;;-0.42;95.06
62051;BME280;48008;51.204;6.766;2022-12-10T07:03:13;100482.78;;;-0.47;94.05
62051;BME280;48008;51.204;6.766;2022-12-10T07:05:39;100491.56;;;-0.64;93.40
62051;BME280;48008;51.204;6.766;2022-12-10T07:08:06;100486.91;;;-0.89;93.94
62051;BME280;48008;51.204;6.766;2022-12-10T07:10:33;100491.47;;;-1.25;95.61
62051;BME280;48008;51.204;6.766;2022-12-10T07:12:59;100488.38;;;-1.31;96.51
62051;BME280;48008;51.204;6.766;2022-12-10T07:15:26;100494.16;;;-1.26;97.54
62051;BME280;48008;51.204;6.766;2022-12-10T07:17:54;100495.66;;;-1.06;97.20
62051;BME280;48008;51.204;6.766;2022-12-10T07:20:21;100498.94;;;-1.03;96.57
62051;BME280;48008;51.204;6.766;2022-12-10T07:22:48;100499.53;;;-0.98;96.29
62051;BME280;48008;51.204;6.766;2022-12-10T07:25:14;100503.78;;;-0.97;96.07
62051;BME280;48008;51.204;6.766;2022-12-10T07:27:41;100504.91;;;-1.17;97.05
62051;BME280;48008;51.204;6.766;2022-12-10T07:30:08;100511.53;;;-0.95;95.95
62051;BME280;48008;51.204;6.766;2022-12-10T07:32:35;100507.03;;;-1.07;96.13
62051;BME280;48008;51.204;6.766;2022-12-10T07:35:02;100505.53;;;-1.27;97.17
62051;BME280;48008;51.204;6.766;2022-12-10T07:37:29;100506.34;;;-1.11;97.39
62051;BME280;48008;51.204;6.766;2022-12-10T07:39:56;100511.56;;;-1.11;96.30
62051;BME280;48008;51.204;6.766;2022-12-10T07:42:23;100515.16;;;-1.13;96.64
62051;BME280;48008;51.204;6.766;2022-12-10T07:44:49;100520.34;;;-1.13;95.68
62051;BME280;48008;51.204;6.766;2022-12-10T07:47:16;100519.44;;;-1.28;95.21
62051;BME280;48008;51.204;6.766;2022-12-10T07:49:43;100525.81;;;-1.34;95.72
62051;BME280;48008;51.204;6.766;2022-12-10T07:52:09;100521.13;;;-1.27;96.78
62051;BME280;48008;51.204;6.766;2022-12-10T07:54:36;100526.06;;;-1.23;95.92
62051;BME280;48008;51.204;6.766;2022-12-10T07:57:03;100529.50;;;-1.22;95.77
62051;BME280;48008;51.204;6.766;2022-12-10T07:59:30;100532.03;;;-1.21;95.67
62051;BME280;48008;51.204;6.766;2022-12-10T08:01:57;100533.66;;;-1.18;96.01
62051;BME280;48008;51.204;6.766;2022-12-10T08:04:27;100529.59;;;-1.08;94.99
62051;BME280;48008;51.204;6.766;2022-12-10T08:06:54;100534.88;;;-1.09;95.03
62051;BME280;48008;51.204;6.766;2022-12-10T08:09:21;100537.41;;;-1.24;95.72
62051;BME280;48008;51.204;6.766;2022-12-10T08:11:48;100544.53;;;-1.11;95.57
62051;BME280;48008;51.204;6.766;2022-12-10T08:14:15;100540.16;;;-0.95;94.80
62051;BME280;48008;51.204;6.766;2022-12-10T08:16:42;100547.91;;;-1.09;95.31
62051;BME280;48008;51.204;6.766;2022-12-10T08:19:08;100546.16;;;-1.09;95.05
62051;BME280;48008;51.204;6.766;2022-12-10T08:21:35;100547.72;;;-1.22;96.17
62051;BME280;48008;51.204;6.766;2022-12-10T08:24:02;100552.94;;;-1.22;96.32
62051;BME280;48008;51.204;6.766;2022-12-10T08:26:31;100547.56;;;-1.35;96.50
62051;BME280;48008;51.204;6.766;2022-12-10T08:28:58;100551.88;;;-1.18;96.42
62051;BME280;48008;51.204;6.766;2022-12-10T08:31:26;100562.44;;;-1.05;95.68
62051;BME280;48008;51.204;6.766;2022-12-10T08:33:54;100566.47;;;-1.00;94.99
62051;BME280;48008;51.204;6.766;2022-12-10T08:36:21;100569.91;;;-0.99;95.45
62051;BME280;48008;51.204;6.766;2022-12-10T08:38:48;100569.50;;;-0.91;95.12
62051;BME280;48008;51.204;6.766;2022-12-10T08:41:18;100576.56;;;-0.93;94.81
62051;BME280;48008;51.204;6.766;2022-12-10T08:43:46;100577.78;;;-1.17;95.27
62051;BME280;48008;51.204;6.766;2022-12-10T08:46:14;100581.25;;;-1.16;95.80
62051;BME280;48008;51.204;6.766;2022-12-10T08:48:42;100582.59;;;-1.09;95.52
62051;BME280;48008;51.204;6.766;2022-12-10T08:51:11;100587.38;;;-1.01;95.50
62051;BME280;48008;51.204;6.766;2022-12-10T08:53:39;100588.16;;;-0.99;94.34
62051;BME280;48008;51.204;6.766;2022-12-10T08:56:06;100593.84;;;-1.08;94.80
62051;BME280;48008;51.204;6.766;2022-12-10T08:58:33;100591.94;;;-1.05;94.67
62051;BME280;48008;51.204;6.766;2022-12-10T09:01:05;100596.38;;;-1.07;93.17
62051;BME280;48008;51.204;6.766;2022-12-10T09:03:32;100599.81;;;-1.06;93.77
62051;BME280;48008;51.204;6.766;2022-12-10T09:06:02;100594.44;;;-1.19;94.85
62051;BME280;48008;51.204;6.766;2022-12-10T09:08:29;100601.63;;;-1.24;95.04
62051;BME280;48008;51.204;6.766;2022-12-10T09:10:56;100588.97;;;-1.30;95.54
62051;BME280;48008;51.204;6.766;2022-12-10T09:13:23;100599.47;;;-1.16;95.45
62051;BME280;48008;51.204;6.766;2022-12-10T09:15:51;100598.16;;;-1.07;95.49
62051;BME280;48008;51.204;6.766;2022-12-10T09:18:19;100599.97;;;-1.09;95.77
62051;BME280;48008;51.204;6.766;2022-12-10T09:20:45;100598.72;;;-1.02;96.00
62051;BME280;48008;51.204;6.766;2022-12-10T09:23:12;100601.59;;;-0.91;95.32
62051;BME280;48008;51.204;6.766;2022-12-10T09:25:39;100601.59;;;-0.91;95.30
62051;BME280;48008;51.204;6.766;2022-12-10T09:28:06;100604.38;;;-0.78;94.29
62051;BME280;48008;51.204;6.766;2022-12-10T09:30:33;100611.91;;;-0.73;94.13
62051;BME280;48008;51.204;6.766;2022-12-10T09:32:59;100611.25;;;-0.61;93.99
62051;BME280;48008;51.204;6.766;2022-12-10T09:35:26;100610.50;;;-0.63;93.65
62051;BME280;48008;51.204;6.766;2022-12-10T09:37:54;100613.25;;;-0.50;93.59
62051;BME280;48008;51.204;6.766;2022-12-10T09:40:29;100614.00;;;-0.48;92.68
62051;BME280;48008;51.204;6.766;2022-12-10T09:43:06;100609.56;;;-0.62;92.74
62051;BME280;48008;51.204;6.766;2022-12-10T09:49:13;100614.75;;;-1.10;93.78
62051;BME280;48008;51.204;6.766;2022-12-10T09:51:47;100610.00;;;-1.02;93.94
62051;BME280;48008;51.204;6.766;2022-12-10T09:54:23;100608.16;;;-1.00;94.57
62051;BME280;48008;51.204;6.766;2022-12-10T09:56:52;100606.47;;;-0.85;93.18
62051;BME280;48008;51.204;6.766;2022-12-10T09:59:27;100611.50;;;-0.98;93.76
62051;BME280;48008;51.204;6.766;2022-12-10T10:04:50;100608.63;;;-0.93;94.43
62051;BME280;48008;51.204;6.766;2022-12-10T10:07:23;100610.50;;;-0.79;93.62
62051;BME280;48008;51.204;6.766;2022-12-10T10:09:55;100612.75;;;-0.73;93.07
62051;BME280;48008;51.204;6.766;2022-12-10T10:12:23;100612.59;;;-0.70;93.73
62051;BME280;48008;51.204;6.766;2022-12-10T10:14:50;100601.06;;;-0.50;93.23
62051;BME280;48008;51.204;6.766;2022-12-10T10:17:27;100614.06;;;-0.34;92.98
62051;BME280;48008;51.204;6.766;2022-12-10T10:19:58;100599.91;;;-0.30;92.07
62051;BME280;48008;51.204;6.766;2022-12-10T10:22:24;100600.59;;;-0.26;91.53
62051;BME280;48008;51.204;6.766;2022-12-10T10:24:53;100601.41;;;-0.26;92.06
62051;BME280;48008;51.204;6.766;2022-12-10T10:27:26;100601.03;;;-0.04;90.99
62051;BME280;48008;51.204;6.766;2022-12-10T10:29:57;100607.19;;;-0.05;90.72
62051;BME280;48008;51.204;6.766;2022-12-10T10:32:28;100610.28;;;-0.28;91.12
62051;BME280;48008;51.204;6.766;2022-12-10T10:35:22;100608.53;;;0.17;90.41
62051;BME280;48008;51.204;6.766;2022-12-10T10:37:49;100603.97;;;0.21;89.72
62051;BME280;48008;51.204;6.766;2022-12-10T10:40:42;100604.81;;;0.35;88.53
62051;BME280;48008;51.204;6.766;2022-12-10T10:43:21;100605.56;;;0.23;88.54
62051;BME280;48008;51.204;6.766;2022-12-10T10:46:11;100592.16;;;0.29;87.73
62051;BME280;48008;51.204;6.766;2022-12-10T10:48:38;100602.47;;;0.31;89.12
62051;BME280;48008;51.204;6.766;2022-12-10T10:51:19;100599.78;;;0.32;87.98
62051;BME280;48008;51.204;6.766;2022-12-10T10:53:50;100603.50;;;0.14;88.63
62051;BME280;48008;51.204;6.766;2022-12-10T10:56:21;100603.00;;;0.07;88.98
62051;BME280;48008;51.204;6.766;2022-12-10T11:01:46;100590.63;;;0.25;89.53
62051;BME280;48008;51.204;6.766;2022-12-10T11:04:15;100596.09;;;0.36;88.69
62051;BME280;48008;51.204;6.766;2022-12-10T11:06:43;100604.44;;;0.42;87.60
62051;BME280;48008;51.204;6.766;2022-12-10T11:09:20;100595.63;;;0.44;88.13
62051;BME280;48008;51.204;6.766;2022-12-10T11:11:56;100600.34;;;0.23;86.35
62051;BME280;48008;51.204;6.766;2022-12-10T11:14:30;100596.81;;;-0.06;87.61
62051;BME280;48008;51.204;6.766;2022-12-10T11:17:03;100593.44;;;0.08;87.62
62051;BME280;48008;51.204;6.766;2022-12-10T11:19:54;100597.94;;;0.20;88.22
62051;BME280;48008;51.204;6.766;2022-12-10T11:22:24;100591.59;;;0.24;88.04
62051;BME280;48008;51.204;6.766;2022-12-10T11:24:51;100593.44;;;0.08;87.26
62051;BME280;48008;51.204;6.766;2022-12-10T11:27:58;100604.31;;;-0.30;87.92
62051;BME280;48008;51.204;6.766;2022-12-10T11:30:17;100589.94;;;-0.07;88.92
62051;BME280;48008;51.204;6.766;2022-12-10T11:33:14;100586.53;;;0.21;87.75
62051;BME280;48008;51.204;6.766;2022-12-10T11:36:08;100594.16;;;0.10;87.64
62051;BME280;48008;51.204;6.766;2022-12-10T11:38:54;100586.69;;;0.04;87.11
62051;BME280;48008;51.204;6.766;2022-12-10T11:41:51;100582.00;;;-0.06;87.12
62051;BME280;48008;51.204;6.766;2022-12-10T11:44:43;100583.16;;;0.05;88.29
62051;BME280;48008;51.204;6.766;2022-12-10T11:47:37;100584.91;;;-0.10;87.86
62051;BME280;48008;51.204;6.766;2022-12-10T11:50:30;100590.25;;;0.03;87.67
62051;BME280;48008;51.204;6.766;2022-12-10T11:56:01;100592.88;;;0.17;87.81
62051;BME280;48008;51.204;6.766;2022-12-10T11:59:02;100590.75;;;0.38;87.96
62051;BME280;48008;51.204;6.766;2022-12-10T12:01:55;100597.25;;;0.31;86.12
62051;BME280;48008;51.204;6.766;2022-12-10T12:04:53;100598.47;;;0.40;85.88
62051;BME280;48008;51.204;6.766;2022-12-10T12:10:46;100603.50;;;0.14;86.44
62051;BME280;48008;51.204;6.766;2022-12-10T12:13:25;100608.63;;;0.15;86.99
62051;BME280;48008;51.204;6.766;2022-12-10T12:16:16;100604.59;;;0.10;87.69
62051;BME280;48008;51.204;6.766;2022-12-10T12:18:53;100606.44;;;-0.07;87.65
62051;BME280;48008;51.204;6.766;2022-12-10T12:21:22;100603.31;;;0.17;88.08
62051;BME280;48008;51.204;6.766;2022-12-10T12:23:55;100597.38;;;0.29;87.91
62051;BME280;48008;51.204;6.766;2022-12-10T12:26:29;100600.09;;;-0.03;87.81
62051;BME280;48008;51.204;6.766;2022-12-10T12:29:27;100598.22;;;-0.01;88.45
62051;BME280;48008;51.204;6.766;2022-12-10T12:32:02;100591.66;;;0.08;88.50
62051;BME280;48008;51.204;6.766;2022-12-10T12:37:21;100592.50;;;0.23;88.65
62051;BME280;48008;51.204;6.766;2022-12-10T12:40:13;100599.53;;;-0.08;88.57
62051;BME280;48008;51.204;6.766;2022-12-10T12:42:48;100597.59;;;0.10;87.92
62051;BME280;48008;51.204;6.766;2022-12-10T12:45:22;100595.69;;;0.28;88.41
62051;BME280;48008;51.204;6.766;2022-12-10T12:48:04;100599.88;;;0.45;87.78
62051;BME280;48008;51.204;6.766;2022-12-10T12:50:45;100604.94;;;0.48;86.76
62051;BME280;48008;51.204;6.766;2022-12-10T12:53:15;100602.16;;;0.66;85.70
62051;BME280;48008;51.204;6.766;2022-12-10T12:55:48;100597.00;;;0.50;85.98
62051;BME280;48008;51.204;6.766;2022-12-10T13:01:35;100604.53;;;0.54;86.20
62051;BME280;48008;51.204;6.766;2022-12-10T13:04:05;100608.13;;;0.68;85.84
62051;BME280;48008;51.204;6.766;2022-12-10T13:06:35;100608.94;;;0.68;84.76
62051;BME280;48008;51.204;6.766;2022-12-10T13:09:24;100602.22;;;0.35;85.28
62051;BME280;48008;51.204;6.766;2022-12-10T13:17:36;100596.16;;;0.64;85.75
62051;BME280;48008;51.204;6.766;2022-12-10T13:23:05;100598.97;;;0.46;86.18
62051;BME280;48008;51.204;6.766;2022-12-10T13:28:38;100604.94;;;0.48;86.00
62051;BME280;48008;51.204;6.766;2022-12-10T13:31:17;100603.81;;;0.52;85.64
62051;BME280;48008;51.204;6.766;2022-12-10T13:36:35;100605.66;;;0.50;86.36
62051;BME280;48008;51.204;6.766;2022-12-10T13:47:54;100603.16;;;0.63;85.95
62051;BME280;48008;51.204;6.766;2022-12-10T13:50:43;100608.03;;;0.69;86.39
62051;BME280;48008;51.204;6.766;2022-12-10T13:53:21;100609.03;;;0.81;85.88
62051;BME280;48008;51.204;6.766;2022-12-10T13:59:28;100607.63;;;0.75;85.60
62051;BME280;48008;51.204;6.766;2022-12-10T14:02:18;100611.16;;;0.74;84.96
62051;BME280;48008;51.204;6.766;2022-12-10T14:05:20;100623.38;;;0.45;86.09
62051;BME280;48008;51.204;6.766;2022-12-10T14:07:52;100625.97;;;0.45;86.67
62051;BME280;48008;51.204;6.766;2022-12-10T14:10:24;100633.81;;;0.45;86.87
62051;BME280;48008;51.204;6.766;2022-12-10T14:12:53;100631.59;;;0.39;87.51
62051;BME280;48008;51.204;6.766;2022-12-10T14:15:23;100638.38;;;0.42;87.59
62051;BME280;48008;51.204;6.766;2022-12-10T14:17:57;100635.88;;;0.54;86.74
62051;BME280;48008;51.204;6.766;2022-12-10T14:20:30;100628.34;;;0.50;87.03